Puebla, Mexico

4:07 PM CDT on April 24, 2017 (GMT -0500)
PROTECCION CIVIL MUNICIPAL PUE02 | | Change Station

Elev 6955 ft 19.07 °N, 98.25 °W | Updated 8 seconds ago

Partly Cloudy
Partly Cloudy
79.7 °F
Feels Like 79 °F
N
4.0
Wind Variable Wind from East
Gusts 6.7 mph

Today
High -- | Low -- °F
--% Chance of Precip.
Yesterday
High -- | Low -- °F
Precip. -- in
Pressure 30.18 in
Visibility 8.0 miles
Clouds Scattered Clouds 2500 ft
Heat Index 79 °F
Dew Point 48 °F
Humidity 33%
Rainfall 0.00 in
Snow Depth Not available.
7:09 AM 7:53 PM
Waning Crescent, 4% visible
METAR MMPB 242049Z 18008KT 8SM SCT025 24/07 A3018 RMK 8/200 HZY
Pressure 30.18 in
Visibility 8.0 miles
Clouds Scattered Clouds 2500 ft
Heat Index 79 °F
Dew Point 48 °F
Humidity 33%
Rainfall 0.00 in
Snow Depth Not available.
7:09 AM 7:53 PM
Waning Crescent, 4% visible
METAR MMPB 242049Z 18008KT 8SM SCT025 24/07 A3018 RMK 8/200 HZY

Get Severe Weather Alerts

Thanks for signing up!

Be on the lookout for a verification email in your inbox.

You'll start receiving the daily forecast at 8 AM.

×

10-Day Weather Forecast

No radar image for this location.
×

Almanac

Astronomy

Apr. 24, 2017 Rise Set
Actual Time
Civil Twilight
Nautical Twilight
Astronomical Twilight
Moon
Length of Visible Light
Length of Day
Tomorrow will be .
, % of the Moon is Illuminated

Today's Extremes

Country Highs Country Lows

Community

WunderPhotos

WunderBlog® & News

Nearby

Air Quality

  Air Quality AQ Index Pollutant
Not available.

Snow Depth

Station Depth Elevation

Earthquake Activity

City Distance Mag. Time & Date
Minimum magnitude displayed is 2.5.

Coastal Water Temperatures

Place Temperature

Stations

Nearby Weather Stations

Station Location Temp. Windchill Dew Point Humidity Wind Precip. Elev Updated Type